sensor_id;sensor_type;location;lat;lon;timestamp;P1;durP1;ratioP1;P2;durP2;ratioP2
17261;SDS011;9873;52.236;21.002;2022-09-09T00:14:37;11.70;;;6.73;;
17261;SDS011;9873;52.236;21.002;2022-09-09T00:24:53;10.90;;;6.60;;
17261;SDS011;9873;52.236;21.002;2022-09-09T00:35:02;13.33;;;8.60;;
17261;SDS011;9873;52.236;21.002;2022-09-09T00:45:28;12.30;;;7.47;;
17261;SDS011;9873;52.236;21.002;2022-09-09T00:55:45;13.23;;;8.90;;
17261;SDS011;9873;52.236;21.002;2022-09-09T01:16:06;16.40;;;8.47;;
17261;SDS011;9873;52.236;21.002;2022-09-09T01:26:15;13.33;;;9.57;;
17261;SDS011;9873;52.236;21.002;2022-09-09T01:36:42;16.97;;;9.77;;
17261;SDS011;9873;52.236;21.002;2022-09-09T01:46:58;15.23;;;9.17;;
17261;SDS011;9873;52.236;21.002;2022-09-09T02:17:52;18.47;;;11.67;;
17261;SDS011;9873;52.236;21.002;2022-09-09T02:28:01;16.27;;;10.83;;
17261;SDS011;9873;52.236;21.002;2022-09-09T02:38:10;16.60;;;11.33;;
17261;SDS011;9873;52.236;21.002;2022-09-09T02:48:48;16.33;;;10.30;;
17261;SDS011;9873;52.236;21.002;2022-09-09T02:58:59;18.53;;;12.17;;
17261;SDS011;9873;52.236;21.002;2022-09-09T03:09:14;16.37;;;11.93;;
17261;SDS011;9873;52.236;21.002;2022-09-09T03:19:19;16.00;;;10.10;;
17261;SDS011;9873;52.236;21.002;2022-09-09T03:29:23;15.50;;;11.17;;
17261;SDS011;9873;52.236;21.002;2022-09-09T03:39:31;20.17;;;11.73;;
17261;SDS011;9873;52.236;21.002;2022-09-09T03:49:33;15.67;;;11.90;;
17261;SDS011;9873;52.236;21.002;2022-09-09T03:59:39;15.80;;;10.93;;
17261;SDS011;9873;52.236;21.002;2022-09-09T04:09:46;14.97;;;11.20;;
17261;SDS011;9873;52.236;21.002;2022-09-09T04:19:53;17.23;;;10.97;;
17261;SDS011;9873;52.236;21.002;2022-09-09T04:29:58;17.10;;;11.50;;
17261;SDS011;9873;52.236;21.002;2022-09-09T04:40:06;16.17;;;11.07;;
17261;SDS011;9873;52.236;21.002;2022-09-09T04:50:11;14.27;;;9.27;;
17261;SDS011;9873;52.236;21.002;2022-09-09T05:00:14;13.87;;;10.73;;
17261;SDS011;9873;52.236;21.002;2022-09-09T05:10:18;12.07;;;9.07;;
17261;SDS011;9873;52.236;21.002;2022-09-09T05:20:23;14.37;;;9.87;;
17261;SDS011;9873;52.236;21.002;2022-09-09T05:30:30;14.97;;;11.13;;
17261;SDS011;9873;52.236;21.002;2022-09-09T05:40:34;13.93;;;10.00;;
17261;SDS011;9873;52.236;21.002;2022-09-09T05:50:39;14.20;;;10.40;;
17261;SDS011;9873;52.236;21.002;2022-09-09T06:00:41;16.00;;;10.43;;
17261;SDS011;9873;52.236;21.002;2022-09-09T06:10:46;16.43;;;11.63;;
17261;SDS011;9873;52.236;21.002;2022-09-09T06:21:03;13.13;;;9.40;;
17261;SDS011;9873;52.236;21.002;2022-09-09T06:31:10;18.33;;;11.97;;
17261;SDS011;9873;52.236;21.002;2022-09-09T06:41:18;18.00;;;12.43;;
17261;SDS011;9873;52.236;21.002;2022-09-09T06:51:25;15.03;;;11.40;;
17261;SDS011;9873;52.236;21.002;2022-09-09T07:01:30;26.00;;;19.43;;
17261;SDS011;9873;52.236;21.002;2022-09-09T07:11:47;25.00;;;13.83;;
17261;SDS011;9873;52.236;21.002;2022-09-09T07:21:53;25.23;;;14.83;;
17261;SDS011;9873;52.236;21.002;2022-09-09T07:31:57;20.57;;;13.77;;
17261;SDS011;9873;52.236;21.002;2022-09-09T07:42:06;28.17;;;16.70;;
17261;SDS011;9873;52.236;21.002;2022-09-09T07:52:10;29.93;;;17.00;;
17261;SDS011;9873;52.236;21.002;2022-09-09T08:02:21;29.70;;;16.97;;
17261;SDS011;9873;52.236;21.002;2022-09-09T08:12:28;33.47;;;20.33;;
17261;SDS011;9873;52.236;21.002;2022-09-09T08:22:31;31.17;;;20.70;;
17261;SDS011;9873;52.236;21.002;2022-09-09T08:32:38;34.27;;;18.87;;
17261;SDS011;9873;52.236;21.002;2022-09-09T08:42:49;30.47;;;19.60;;
17261;SDS011;9873;52.236;21.002;2022-09-09T09:03:22;35.53;;;21.17;;
17261;SDS011;9873;52.236;21.002;2022-09-09T09:13:46;46.37;;;24.50;;
17261;SDS011;9873;52.236;21.002;2022-09-09T09:34:04;34.33;;;22.33;;
17261;SDS011;9873;52.236;21.002;2022-09-09T09:44:25;38.40;;;19.87;;
17261;SDS011;9873;52.236;21.002;2022-09-09T09:54:41;42.53;;;24.50;;
17261;SDS011;9873;52.236;21.002;2022-09-09T10:04:47;35.70;;;22.67;;
17261;SDS011;9873;52.236;21.002;2022-09-09T10:15:54;37.53;;;23.77;;
17261;SDS011;9873;52.236;21.002;2022-09-09T10:25:38;40.90;;;21.87;;
17261;SDS011;9873;52.236;21.002;2022-09-09T10:36:16;38.33;;;22.73;;
17261;SDS011;9873;52.236;21.002;2022-09-09T10:56:52;47.97;;;29.98;;
17261;SDS011;9873;52.236;21.002;2022-09-09T11:07:02;47.80;;;25.23;;
17261;SDS011;9873;52.236;21.002;2022-09-09T11:17:14;47.60;;;26.07;;
17261;SDS011;9873;52.236;21.002;2022-09-09T11:27:23;58.35;;;27.80;;
17261;SDS011;9873;52.236;21.002;2022-09-09T11:48:27;51.63;;;28.30;;
17261;SDS011;9873;52.236;21.002;2022-09-09T11:58:39;50.10;;;27.37;;
17261;SDS011;9873;52.236;21.002;2022-09-09T12:08:45;52.73;;;29.47;;
17261;SDS011;9873;52.236;21.002;2022-09-09T12:19:12;55.00;;;29.83;;
17261;SDS011;9873;52.236;21.002;2022-09-09T12:29:25;57.40;;;30.67;;
17261;SDS011;9873;52.236;21.002;2022-09-09T12:39:37;57.83;;;32.23;;
17261;SDS011;9873;52.236;21.002;2022-09-09T12:49:44;55.13;;;30.65;;
17261;SDS011;9873;52.236;21.002;2022-09-09T12:59:46;57.55;;;29.88;;
17261;SDS011;9873;52.236;21.002;2022-09-09T13:09:50;61.88;;;31.35;;
17261;SDS011;9873;52.236;21.002;2022-09-09T13:19:54;62.35;;;30.60;;
17261;SDS011;9873;52.236;21.002;2022-09-09T13:30:19;69.32;;;30.70;;
17261;SDS011;9873;52.236;21.002;2022-09-09T13:40:30;66.30;;;32.00;;
17261;SDS011;9873;52.236;21.002;2022-09-09T13:50:33;68.80;;;30.73;;
17261;SDS011;9873;52.236;21.002;2022-09-09T14:00:36;77.57;;;31.48;;
17261;SDS011;9873;52.236;21.002;2022-09-09T14:10:38;68.90;;;32.03;;
17261;SDS011;9873;52.236;21.002;2022-09-09T14:20:45;79.27;;;27.70;;
17261;SDS011;9873;52.236;21.002;2022-09-09T14:30:49;84.45;;;35.75;;
17261;SDS011;9873;52.236;21.002;2022-09-09T14:40:56;82.37;;;34.43;;
17261;SDS011;9873;52.236;21.002;2022-09-09T14:51:10;65.20;;;30.67;;
17261;SDS011;9873;52.236;21.002;2022-09-09T15:01:17;76.80;;;30.50;;
17261;SDS011;9873;52.236;21.002;2022-09-09T15:11:22;73.47;;;31.77;;
17261;SDS011;9873;52.236;21.002;2022-09-09T15:21:35;61.57;;;30.80;;
17261;SDS011;9873;52.236;21.002;2022-09-09T15:31:40;65.60;;;31.95;;
17261;SDS011;9873;52.236;21.002;2022-09-09T15:41:43;59.33;;;30.58;;
17261;SDS011;9873;52.236;21.002;2022-09-09T15:51:50;53.05;;;28.55;;
17261;SDS011;9873;52.236;21.002;2022-09-09T16:01:56;50.60;;;25.23;;
17261;SDS011;9873;52.236;21.002;2022-09-09T16:12:03;43.80;;;21.38;;
17261;SDS011;9873;52.236;21.002;2022-09-09T16:22:13;45.83;;;26.63;;
17261;SDS011;9873;52.236;21.002;2022-09-09T16:32:19;46.47;;;24.48;;
17261;SDS011;9873;52.236;21.002;2022-09-09T16:42:26;46.08;;;25.80;;
17261;SDS011;9873;52.236;21.002;2022-09-09T16:52:29;42.60;;;22.47;;
17261;SDS011;9873;52.236;21.002;2022-09-09T17:02:36;41.53;;;23.95;;
17261;SDS011;9873;52.236;21.002;2022-09-09T17:12:42;45.40;;;24.70;;
17261;SDS011;9873;52.236;21.002;2022-09-09T17:22:47;44.50;;;25.07;;
17261;SDS011;9873;52.236;21.002;2022-09-09T17:32:49;43.63;;;23.83;;
17261;SDS011;9873;52.236;21.002;2022-09-09T17:42:51;43.83;;;24.20;;
17261;SDS011;9873;52.236;21.002;2022-09-09T17:53:02;41.60;;;24.47;;
17261;SDS011;9873;52.236;21.002;2022-09-09T18:03:07;44.70;;;26.17;;
17261;SDS011;9873;52.236;21.002;2022-09-09T18:13:12;48.93;;;26.57;;
17261;SDS011;9873;52.236;21.002;2022-09-09T18:23:16;43.20;;;24.57;;
17261;SDS011;9873;52.236;21.002;2022-09-09T18:33:19;50.50;;;26.77;;
17261;SDS011;9873;52.236;21.002;2022-09-09T18:43:21;47.20;;;26.27;;
17261;SDS011;9873;52.236;21.002;2022-09-09T18:53:23;44.30;;;25.27;;
17261;SDS011;9873;52.236;21.002;2022-09-09T19:03:26;40.63;;;24.00;;
17261;SDS011;9873;52.236;21.002;2022-09-09T19:13:35;41.63;;;23.27;;
17261;SDS011;9873;52.236;21.002;2022-09-09T19:23:44;40.63;;;19.90;;
17261;SDS011;9873;52.236;21.002;2022-09-09T19:33:47;36.63;;;21.03;;
17261;SDS011;9873;52.236;21.002;2022-09-09T19:43:57;39.60;;;21.17;;
17261;SDS011;9873;52.236;21.002;2022-09-09T19:54:13;33.20;;;18.00;;
17261;SDS011;9873;52.236;21.002;2022-09-09T20:04:17;36.50;;;20.02;;
17261;SDS011;9873;52.236;21.002;2022-09-09T20:14:22;27.87;;;17.67;;
17261;SDS011;9873;52.236;21.002;2022-09-09T20:24:24;28.17;;;18.07;;
17261;SDS011;9873;52.236;21.002;2022-09-09T20:34:29;30.07;;;18.13;;
17261;SDS011;9873;52.236;21.002;2022-09-09T20:44:36;32.17;;;18.83;;
17261;SDS011;9873;52.236;21.002;2022-09-09T20:54:38;37.70;;;20.80;;
17261;SDS011;9873;52.236;21.002;2022-09-09T21:04:43;35.47;;;19.87;;
17261;SDS011;9873;52.236;21.002;2022-09-09T21:14:48;33.50;;;18.17;;
17261;SDS011;9873;52.236;21.002;2022-09-09T21:24:54;38.03;;;20.57;;
17261;SDS011;9873;52.236;21.002;2022-09-09T21:34:59;32.37;;;19.90;;
17261;SDS011;9873;52.236;21.002;2022-09-09T21:45:04;27.87;;;17.47;;
17261;SDS011;9873;52.236;21.002;2022-09-09T21:55:07;35.30;;;20.33;;
17261;SDS011;9873;52.236;21.002;2022-09-09T22:05:12;34.53;;;18.07;;
17261;SDS011;9873;52.236;21.002;2022-09-09T22:15:17;29.20;;;17.30;;
17261;SDS011;9873;52.236;21.002;2022-09-09T22:25:19;29.73;;;19.50;;
17261;SDS011;9873;52.236;21.002;2022-09-09T22:35:27;29.67;;;17.23;;
17261;SDS011;9873;52.236;21.002;2022-09-09T22:45:32;31.67;;;18.37;;
17261;SDS011;9873;52.236;21.002;2022-09-09T22:55:37;27.33;;;16.70;;
17261;SDS011;9873;52.236;21.002;2022-09-09T23:05:51;31.63;;;16.97;;
17261;SDS011;9873;52.236;21.002;2022-09-09T23:15:57;27.53;;;15.43;;
17261;SDS011;9873;52.236;21.002;2022-09-09T23:26:08;24.10;;;13.80;;
17261;SDS011;9873;52.236;21.002;2022-09-09T23:36:12;28.40;;;14.00;;
17261;SDS011;9873;52.236;21.002;2022-09-09T23:46:21;25.83;;;15.00;;
17261;SDS011;9873;52.236;21.002;2022-09-09T23:56:27;17.47;;;10.57;;
